createdAt,value
2018-04-13T07:19:01.809Z,1006.88
2018-04-13T07:20:01.832Z,1012.50
2018-04-13T07:21:01.879Z,1023.75
2018-04-13T07:22:01.929Z,1040.63
2018-04-13T07:23:02.004Z,1051.88
2018-04-13T07:24:02.062Z,1040.63
2018-04-13T07:25:02.102Z,1029.38
2018-04-13T07:26:02.135Z,1029.38
2018-04-13T07:27:02.190Z,1046.25
2018-04-13T07:28:02.231Z,1046.25
2018-04-13T07:29:02.314Z,1040.63
2018-04-13T07:30:02.334Z,1057.50
2018-04-13T07:31:02.389Z,1057.50
2018-04-13T07:32:02.435Z,1063.13
2018-04-13T07:33:02.488Z,1051.88
2018-04-13T07:34:02.576Z,1068.75
2018-04-13T07:35:02.589Z,1068.75
2018-04-13T07:36:02.645Z,1080.00
2018-04-13T07:37:02.689Z,1108.13
2018-04-13T07:38:02.744Z,1113.75
2018-04-13T07:39:02.818Z,1113.75
2018-04-13T07:40:02.873Z,1130.63
2018-04-13T07:41:02.903Z,1136.25
2018-04-13T07:42:02.951Z,1141.88
2018-04-13T07:43:03.002Z,1158.75
2018-04-13T07:44:03.052Z,1141.88
2018-04-13T07:45:03.198Z,1125.00
2018-04-13T07:46:03.157Z,1175.63
2018-04-13T07:47:03.206Z,1192.50
2018-04-13T07:48:03.259Z,1209.38
2018-04-13T07:49:03.309Z,1237.50
2018-04-13T07:50:03.387Z,1243.13
2018-04-13T07:51:03.415Z,1248.75
2018-04-13T07:52:03.467Z,1237.50
2018-04-13T07:53:03.519Z,1254.38
2018-04-13T07:54:03.575Z,1248.75
2018-04-13T07:55:03.654Z,1243.13
2018-04-13T07:56:03.676Z,1203.75
2018-04-13T07:57:03.727Z,1220.63
2018-04-13T07:58:03.793Z,1209.38
2018-04-13T07:59:03.835Z,1248.75
2018-04-13T08:00:03.907Z,1293.75
2018-04-13T08:01:03.937Z,1288.13
2018-04-13T08:02:03.986Z,1338.75
2018-04-13T08:03:04.040Z,1310.63
2018-04-13T08:04:04.090Z,1170.00
2018-04-13T08:05:04.180Z,1254.38
2018-04-13T08:06:04.194Z,1305.00
2018-04-13T08:07:04.245Z,1282.50
2018-04-13T08:08:04.322Z,1203.75
2018-04-13T08:09:04.359Z,1147.50
2018-04-13T08:10:04.410Z,1265.63
2018-04-13T08:11:04.479Z,1181.25
2018-04-13T08:12:04.512Z,916.88
2018-04-13T08:13:04.562Z,810.00
2018-04-13T08:14:04.614Z,748.13
2018-04-13T08:15:04.664Z,933.75
2018-04-13T08:16:04.742Z,1119.38
2018-04-13T08:17:04.771Z,1158.75
2018-04-13T08:18:04.860Z,652.50
2018-04-13T08:19:04.877Z,652.50
2018-04-13T08:20:04.925Z,714.38
2018-04-13T08:21:05.005Z,888.75
2018-04-13T08:22:05.029Z,1209.38
2018-04-13T08:23:05.081Z,1350.00
2018-04-13T08:24:05.134Z,1338.75
2018-04-13T08:25:05.210Z,1035.00
2018-04-13T08:26:05.239Z,826.88
2018-04-13T08:27:05.315Z,1158.75
2018-04-13T08:28:05.339Z,1141.88
2018-04-13T08:29:05.393Z,1333.13
2018-04-13T08:30:06.006Z,1198.13
2018-04-13T08:31:05.496Z,961.88
2018-04-13T08:32:05.562Z,781.88
2018-04-13T08:33:05.601Z,680.63
2018-04-13T08:34:05.650Z,568.13
2018-04-13T08:35:05.725Z,540.00
2018-04-13T08:36:05.762Z,641.25
2018-04-13T08:37:05.806Z,956.25
2018-04-13T08:38:05.858Z,1108.13
2018-04-13T08:39:05.908Z,1231.88
2018-04-13T08:40:05.989Z,1243.13
2018-04-13T08:41:06.014Z,1237.50
2018-04-13T08:42:06.063Z,1220.63
2018-04-13T08:43:06.117Z,1175.63
2018-04-13T08:44:06.185Z,1096.88
2018-04-13T08:45:06.251Z,1035.00
2018-04-13T08:46:06.271Z,1119.38
2018-04-13T08:47:06.320Z,1080.00
2018-04-13T08:48:06.372Z,1096.88
2018-04-13T08:49:06.568Z,1181.25
2018-04-13T08:50:06.512Z,1186.88
2018-04-13T08:51:06.525Z,1237.50
2018-04-13T08:52:06.618Z,1220.63
2018-04-13T08:53:06.633Z,1215.00
2018-04-13T08:54:06.715Z,1158.75
2018-04-13T08:55:06.770Z,1091.25
2018-04-13T08:56:06.783Z,1057.50
2018-04-13T08:57:06.835Z,1080.00
2018-04-13T08:58:06.913Z,1046.25
2018-04-13T08:59:06.937Z,1068.75
2018-04-13T09:00:06.989Z,1051.88
2018-04-13T09:01:07.040Z,1096.88
2018-04-13T09:02:07.093Z,1119.38
2018-04-13T09:03:07.170Z,1119.38
2018-04-13T09:04:07.196Z,1203.75
2018-04-13T09:05:07.256Z,1198.13
2018-04-13T09:06:07.324Z,1085.63
2018-04-13T09:07:07.351Z,950.63
2018-04-13T09:08:07.449Z,933.75
2018-04-13T09:09:07.466Z,1243.13
2018-04-13T09:10:07.508Z,1344.38
2018-04-13T09:11:07.559Z,1254.38
2018-04-13T09:12:07.613Z,1237.50
2018-04-13T09:13:07.696Z,1170.00
2018-04-13T09:14:07.756Z,1096.88
2018-04-13T09:15:07.767Z,1085.63
2018-04-13T09:16:07.818Z,1215.00
2018-04-13T09:17:07.870Z,1293.75
2018-04-13T09:18:07.969Z,1310.63
2018-04-13T09:19:07.980Z,1299.38
2018-04-13T09:20:08.034Z,1327.50
2018-04-13T09:21:08.079Z,1338.75
2018-04-13T09:22:08.132Z,1355.63
2018-04-13T09:23:08.211Z,1293.75
2018-04-13T09:24:08.238Z,1265.63
2018-04-13T09:25:08.287Z,1344.38
2018-04-13T09:26:08.340Z,1327.50
2018-04-13T09:27:08.392Z,1254.38
2018-04-13T09:28:08.479Z,1316.25
2018-04-13T09:29:08.537Z,1518.75
2018-04-13T09:30:08.552Z,1546.88
2018-04-13T09:31:08.603Z,1569.38
2018-04-13T09:32:08.657Z,1653.75
2018-04-13T09:33:08.709Z,1726.88
2018-04-13T09:34:08.786Z,1732.50
2018-04-13T09:35:08.813Z,1738.13
2018-04-13T09:36:08.867Z,1760.63
2018-04-13T09:37:08.924Z,1738.13
2018-04-13T09:38:08.973Z,1783.13
2018-04-13T09:39:09.052Z,1771.88
2018-04-13T09:40:09.080Z,1693.13
2018-04-13T09:41:09.131Z,1665.00
2018-04-13T09:42:09.184Z,1687.50
2018-04-13T09:43:09.235Z,1704.38
2018-04-13T09:44:09.314Z,1693.13
2018-04-13T09:45:09.350Z,1620.00
2018-04-13T09:46:09.421Z,1693.13
2018-04-13T09:47:09.469Z,1732.50
2018-04-13T09:48:09.506Z,1890.00
2018-04-13T09:49:09.553Z,1935.00
2018-04-13T09:50:09.607Z,1850.63
2018-04-13T09:51:09.682Z,1935.00
2018-04-13T09:52:09.713Z,1833.75
2018-04-13T09:53:09.771Z,1738.13
2018-04-13T09:54:09.816Z,1710.00
2018-04-13T09:55:09.876Z,1659.38
2018-04-13T09:56:09.960Z,1811.25
2018-04-13T09:57:09.980Z,1940.63
2018-04-13T09:58:10.030Z,1861.88
2018-04-13T09:59:10.083Z,2013.75
2018-04-13T10:00:10.132Z,2120.63
2018-04-13T10:01:10.213Z,2266.88
2018-04-13T10:02:10.261Z,2323.13
2018-04-13T10:03:10.292Z,2362.50
2018-04-13T10:04:10.347Z,2244.38
2018-04-13T10:05:10.395Z,2266.88
2018-04-13T10:06:10.446Z,2323.13
2018-04-13T10:07:10.523Z,2193.75
2018-04-13T10:08:10.554Z,1878.75
2018-04-13T10:09:10.606Z,1726.88
2018-04-13T10:10:10.658Z,1546.88
2018-04-13T10:11:10.709Z,1546.88
2018-04-13T10:12:10.786Z,1530.00
2018-04-13T10:13:10.844Z,1445.63
2018-04-13T10:14:10.864Z,1518.75
2018-04-13T10:15:10.918Z,1513.13
2018-04-13T10:16:10.971Z,1456.88
2018-04-13T10:17:11.021Z,1580.63
2018-04-13T10:18:11.098Z,1530.00
2018-04-13T10:19:11.124Z,1614.38
2018-04-13T10:20:11.178Z,1845.00
2018-04-13T10:21:11.233Z,2120.63
2018-04-13T10:22:11.297Z,2244.38
2018-04-13T10:23:11.355Z,2255.63
2018-04-13T10:24:11.390Z,2306.25
2018-04-13T10:25:11.435Z,2334.38
2018-04-13T10:26:11.487Z,2244.38
2018-04-13T10:27:11.541Z,2272.50
2018-04-13T10:28:11.624Z,2160.00
2018-04-13T10:29:11.668Z,2131.88
2018-04-13T10:30:11.694Z,2030.63
2018-04-13T10:31:11.751Z,1895.63
2018-04-13T10:32:11.803Z,1687.50
2018-04-13T10:33:11.853Z,1670.63
2018-04-13T10:34:11.929Z,1625.63
2018-04-13T10:35:11.958Z,1625.63
2018-04-13T10:36:12.018Z,1653.75
2018-04-13T10:37:12.062Z,1625.63
2018-04-13T10:38:12.116Z,1631.25
2018-04-13T10:39:12.200Z,1620.00
2018-04-13T10:40:12.223Z,1642.50
2018-04-13T10:41:12.273Z,1665.00
2018-04-13T10:42:12.327Z,1648.13
2018-04-13T10:43:12.380Z,1665.00
2018-04-13T10:44:12.453Z,1704.38
2018-04-13T10:45:12.507Z,1726.88
2018-04-13T10:46:12.539Z,1760.63
2018-04-13T10:47:12.593Z,1726.88
2018-04-13T10:48:12.642Z,1732.50
2018-04-13T10:49:12.699Z,1710.00
2018-04-13T10:50:12.791Z,1676.25
2018-04-13T10:51:12.805Z,1693.13
2018-04-13T10:52:12.854Z,1743.75
2018-04-13T10:53:12.907Z,1800.00
2018-04-13T10:54:12.962Z,1833.75
2018-04-13T10:55:13.052Z,1850.63
2018-04-13T10:56:13.103Z,1906.88
2018-04-13T10:57:13.132Z,2047.50
2018-04-13T10:58:13.173Z,2103.75
2018-04-13T10:59:13.228Z,2120.63
2018-04-13T11:00:13.283Z,2221.88
2018-04-13T11:01:13.359Z,2216.25
2018-04-13T11:02:13.392Z,2328.75
2018-04-13T11:03:13.440Z,2491.88
2018-04-13T11:04:13.496Z,2643.75
2018-04-13T11:05:13.548Z,2981.25
2018-04-13T11:06:13.625Z,3172.50
2018-04-13T11:07:13.655Z,3346.88
2018-04-13T11:08:13.716Z,2649.38
2018-04-13T11:09:13.767Z,1507.50
2018-04-13T11:10:13.817Z,2137.50
2018-04-13T11:11:13.892Z,1884.38
2018-04-13T11:12:13.955Z,1895.63
2018-04-13T11:13:13.974Z,2233.13
2018-04-13T11:14:14.028Z,1783.13
2018-04-13T11:15:14.084Z,1383.75
2018-04-13T11:16:14.144Z,1749.38
2018-04-13T11:17:14.227Z,2401.88
2018-04-13T11:18:14.244Z,3920.63
2018-04-13T11:19:14.297Z,3864.38
2018-04-13T11:20:14.356Z,3870.00
2018-04-13T11:21:14.404Z,3735.00
2018-04-13T11:22:14.499Z,3825.00
2018-04-13T11:23:14.511Z,3746.25
2018-04-13T11:24:14.573Z,3841.88
2018-04-13T11:25:14.618Z,3976.88
2018-04-13T11:26:14.675Z,4027.50
2018-04-13T11:27:14.755Z,3954.38
2018-04-13T11:28:14.805Z,3470.63
2018-04-13T11:29:14.833Z,4055.63
2018-04-13T11:30:14.888Z,3886.88
2018-04-13T11:31:14.944Z,3375.00
2018-04-13T11:32:14.999Z,3223.13
2018-04-13T11:33:15.087Z,3256.88
2018-04-13T11:34:15.108Z,2221.88
2018-04-13T11:35:15.169Z,3386.25
2018-04-13T11:36:15.218Z,4286.25
2018-04-13T11:37:15.276Z,4359.38
2018-04-13T11:38:15.352Z,3870.00
2018-04-13T11:39:15.385Z,4123.13
2018-04-13T11:40:15.443Z,4213.13
2018-04-13T11:41:15.498Z,4185.00
2018-04-13T11:42:15.553Z,2435.63
2018-04-13T11:43:15.642Z,4050.00
2018-04-13T11:44:15.663Z,3718.13
2018-04-13T11:45:15.717Z,3622.50
2018-04-13T11:46:15.773Z,3273.75
2018-04-13T11:47:15.829Z,3521.25
2018-04-13T11:48:15.922Z,3611.25
2018-04-13T11:49:15.940Z,3628.13
2018-04-13T11:50:15.996Z,3560.63
2018-04-13T11:51:16.054Z,3560.63
2018-04-13T11:52:16.109Z,3532.50
2018-04-13T11:53:16.184Z,3515.63
2018-04-13T11:54:16.243Z,3476.25
2018-04-13T11:55:16.311Z,3442.50
2018-04-13T11:56:16.330Z,3408.75
2018-04-13T11:57:16.387Z,3341.25
2018-04-13T11:58:16.451Z,3290.63
2018-04-13T11:59:16.534Z,3234.38
2018-04-13T12:00:16.553Z,3189.38
2018-04-13T12:01:16.612Z,3150.00
2018-04-13T12:02:16.665Z,3127.50
2018-04-13T12:03:16.727Z,3088.13
2018-04-13T12:04:16.806Z,3048.75
2018-04-13T12:05:16.857Z,3037.50
2018-04-13T12:06:16.893Z,3003.75
2018-04-13T12:07:16.947Z,3020.63
2018-04-13T12:08:17.008Z,3003.75
2018-04-13T12:09:17.059Z,2953.13
2018-04-13T12:10:17.139Z,2413.13
2018-04-13T12:11:17.173Z,2840.63
2018-04-13T12:12:17.232Z,3003.75
2018-04-13T12:13:17.286Z,2986.88
2018-04-13T12:14:17.343Z,2998.13
2018-04-13T12:15:17.426Z,3003.75
2018-04-13T12:16:17.458Z,3037.50
2018-04-13T12:17:17.521Z,3076.88
2018-04-13T12:18:17.570Z,3144.38
2018-04-13T12:19:17.637Z,3189.38
2018-04-13T12:20:17.712Z,3223.13
2018-04-13T12:21:17.744Z,3189.38
2018-04-13T12:22:17.801Z,3144.38
2018-04-13T12:23:17.861Z,3110.63
2018-04-13T12:24:17.916Z,3088.13
2018-04-13T12:25:18.001Z,3060.00
2018-04-13T12:26:18.032Z,3020.63
2018-04-13T12:27:18.117Z,2992.50
2018-04-13T12:28:18.145Z,2902.50
2018-04-13T12:29:18.203Z,2767.50
2018-04-13T12:30:18.261Z,2469.38
2018-04-13T12:31:18.356Z,2255.63
2018-04-13T12:32:18.400Z,2441.25
2018-04-13T12:33:18.430Z,2548.13
2018-04-13T12:34:18.492Z,2677.50
2018-04-13T12:35:18.547Z,2688.75
2018-04-13T12:36:18.607Z,2694.38
2018-04-13T12:37:18.688Z,2700.00
2018-04-13T12:38:18.740Z,2716.88
2018-04-13T12:39:18.778Z,2688.75
2018-04-13T12:40:18.834Z,2733.75
2018-04-13T12:41:18.897Z,2750.63
2018-04-13T12:42:30.599Z,2694.38
2018-04-13T12:43:19.010Z,2722.50
2018-04-13T12:44:19.066Z,2705.63
2018-04-13T12:45:19.124Z,2700.00
2018-04-13T12:46:19.912Z,2649.38
2018-04-13T12:47:19.270Z,2677.50
2018-04-13T12:48:19.301Z,2655.00
2018-04-13T12:49:19.358Z,2666.25
2018-04-13T12:50:19.416Z,2632.50
2018-04-13T12:51:19.483Z,2615.63
2018-04-13T12:52:19.554Z,2593.13
2018-04-13T12:53:19.592Z,2598.75
2018-04-13T12:54:19.712Z,2621.25
2018-04-13T12:55:19.797Z,2638.13
2018-04-13T12:56:19.781Z,2660.63
2018-04-13T12:57:19.820Z,2671.88
2018-04-13T12:58:19.882Z,2683.13
2018-04-13T12:59:19.937Z,2677.50
2018-04-13T13:00:20.022Z,2700.00
2018-04-13T13:01:20.059Z,2694.38
2018-04-13T13:02:20.116Z,2700.00
2018-04-13T13:03:20.170Z,2705.63
2018-04-13T13:04:20.231Z,2722.50
2018-04-13T13:05:20.321Z,2694.38
2018-04-13T13:06:20.350Z,2700.00
2018-04-13T13:07:20.407Z,2711.25
2018-04-13T13:08:20.465Z,2711.25
2018-04-13T13:09:20.528Z,2716.88
2018-04-13T13:10:20.624Z,2733.75
2018-04-13T13:11:20.647Z,2739.38
2018-04-13T13:12:20.703Z,2750.63
2018-04-13T13:13:20.762Z,2750.63
2018-04-13T13:14:20.821Z,2756.25
2018-04-13T13:15:20.919Z,2739.38
2018-04-13T13:16:20.940Z,2632.50
2018-04-13T13:17:21.002Z,2655.00
2018-04-13T13:18:21.056Z,2559.38
2018-04-13T13:19:21.119Z,2520.00
2018-04-13T13:20:21.201Z,2300.63
2018-04-13T13:21:21.260Z,2362.50
2018-04-13T13:22:21.298Z,2430.00
2018-04-13T13:23:21.355Z,2002.50
2018-04-13T13:24:21.416Z,2328.75
2018-04-13T13:25:21.474Z,2401.88
2018-04-13T13:26:21.559Z,2430.00
2018-04-13T13:27:21.593Z,2441.25
2018-04-13T13:28:21.652Z,2463.75
2018-04-13T13:29:21.717Z,2458.13
2018-04-13T13:30:21.771Z,2441.25
2018-04-13T13:31:21.854Z,2424.38
2018-04-13T13:32:21.894Z,2413.13
2018-04-13T13:33:21.949Z,2340.00
2018-04-13T13:34:22.012Z,2098.13
2018-04-13T13:35:22.073Z,2255.63
2018-04-13T13:36:22.158Z,2182.50
2018-04-13T13:37:22.192Z,2233.13
2018-04-13T13:38:22.252Z,2182.50
2018-04-13T13:39:22.309Z,2103.75
2018-04-13T13:40:22.370Z,2120.63
2018-04-13T13:41:22.460Z,2075.63
2018-04-13T13:42:22.495Z,2058.75
2018-04-13T13:43:22.549Z,2019.38
2018-04-13T13:44:22.614Z,1968.75
2018-04-13T13:45:22.680Z,1912.50
2018-04-13T13:46:22.783Z,1485.00
2018-04-13T13:47:22.794Z,1856.25
2018-04-13T13:48:22.849Z,1833.75
2018-04-13T13:49:22.912Z,1816.88
2018-04-13T13:50:22.978Z,1771.88
2018-04-13T13:51:23.079Z,1771.88
2018-04-13T13:52:23.093Z,1766.25
2018-04-13T13:53:23.155Z,1749.38
2018-04-13T13:54:23.211Z,1721.25
2018-04-13T13:55:23.276Z,1732.50
2018-04-13T13:56:23.357Z,1721.25
2018-04-13T13:57:23.397Z,1715.63
2018-04-13T13:58:23.464Z,1710.00
2018-04-13T13:59:23.546Z,1698.75
2018-04-13T14:00:23.577Z,1693.13
2018-04-13T14:01:23.636Z,1670.63
2018-04-13T14:02:23.749Z,1665.00
2018-04-13T14:03:23.757Z,1653.75
2018-04-13T14:04:23.826Z,1665.00
2018-04-13T14:05:23.881Z,1642.50
2018-04-13T14:06:23.938Z,1636.88
2018-04-13T14:07:24.024Z,1614.38
2018-04-13T14:08:24.060Z,1597.50
2018-04-13T14:09:24.165Z,1563.75
2018-04-13T14:10:24.186Z,1524.38
2018-04-13T14:11:24.245Z,1507.50
2018-04-13T14:12:24.303Z,1462.50
2018-04-13T14:13:24.362Z,1440.00
2018-04-13T14:14:24.466Z,1400.63
2018-04-13T14:15:24.485Z,1372.50
2018-04-13T14:16:24.548Z,1350.00
2018-04-13T14:17:24.609Z,1316.25
2018-04-13T14:18:24.697Z,1293.75
2018-04-13T14:19:24.731Z,1271.25
2018-04-13T14:20:24.804Z,1248.75
2018-04-13T14:21:24.858Z,1237.50
2018-04-13T14:22:24.917Z,1209.38
2018-04-13T14:23:25.003Z,1186.88
2018-04-13T14:24:25.041Z,1175.63
2018-04-13T14:25:25.128Z,1153.13
2018-04-13T14:26:25.165Z,1147.50
2018-04-13T14:27:25.233Z,1130.63
2018-04-13T14:28:25.295Z,1113.75
2018-04-13T14:29:25.364Z,1113.75
2018-04-13T14:30:25.490Z,1108.13
2018-04-13T14:31:25.478Z,1096.88
2018-04-13T14:32:25.551Z,1091.25
2018-04-13T14:33:25.606Z,1085.63
2018-04-13T14:34:25.693Z,1085.63
2018-04-13T14:35:25.767Z,1074.38
2018-04-13T14:36:25.795Z,1080.00
2018-04-13T14:37:25.857Z,1057.50
2018-04-13T14:38:25.923Z,1057.50
2018-04-13T14:39:25.992Z,1040.63
2018-04-13T14:40:26.072Z,1035.00
2018-04-13T14:41:26.107Z,1023.75
2018-04-13T14:42:26.170Z,1018.13
2018-04-13T14:43:26.234Z,1012.50
2018-04-13T14:44:26.296Z,1023.75
2018-04-13T14:45:26.382Z,1012.50
2018-04-13T14:46:26.421Z,1012.50
2018-04-13T14:47:26.486Z,1001.25
2018-04-13T14:48:26.548Z,995.63
2018-04-13T14:49:26.609Z,995.63
2018-04-13T14:50:26.695Z,995.63
2018-04-13T14:51:26.737Z,990.00
2018-04-13T14:52:26.803Z,973.13
2018-04-13T14:53:26.864Z,956.25
2018-04-13T14:54:26.927Z,939.38
2018-04-13T14:55:27.010Z,922.50
2018-04-13T14:56:27.054Z,905.63
2018-04-13T14:57:27.141Z,900.00
2018-04-13T14:58:27.179Z,888.75
2018-04-13T14:59:27.242Z,877.50
2018-04-13T15:00:27.304Z,866.25
2018-04-13T15:01:27.365Z,860.63
2018-04-13T15:02:27.452Z,855.00
2018-04-13T15:03:27.502Z,849.38
2018-04-13T15:04:27.556Z,849.38
2018-04-13T15:05:27.619Z,849.38
2018-04-13T15:06:27.688Z,843.75
2018-04-13T15:07:27.778Z,843.75
2018-04-13T15:08:27.804Z,832.50
2018-04-13T15:09:27.871Z,826.88
2018-04-13T15:10:27.930Z,815.63
2018-04-13T15:11:27.996Z,821.25
2018-04-13T15:12:28.079Z,815.63
2018-04-13T15:13:28.145Z,815.63
2018-04-13T15:14:28.185Z,815.63
2018-04-13T15:15:28.250Z,815.63
2018-04-13T15:16:28.313Z,810.00
2018-04-13T15:17:28.373Z,810.00
2018-04-13T15:18:28.463Z,793.13
2018-04-13T15:19:28.528Z,793.13
2018-04-13T15:20:28.563Z,798.75
2018-04-13T15:21:28.627Z,793.13
2018-04-13T15:22:28.693Z,793.13
2018-04-13T15:23:28.756Z,793.13
2018-04-13T15:24:28.861Z,793.13
2018-04-13T15:25:28.883Z,793.13
2018-04-13T15:26:28.948Z,793.13
2018-04-13T15:27:29.011Z,787.50
2018-04-13T15:28:29.078Z,776.25
2018-04-13T15:29:29.164Z,765.00
2018-04-13T15:30:29.204Z,759.38
2018-04-13T15:31:29.270Z,759.38
2018-04-13T15:32:29.332Z,748.13
2018-04-13T15:33:29.397Z,759.38
2018-04-13T15:34:29.483Z,770.63
2018-04-13T15:35:29.549Z,776.25
2018-04-13T15:36:29.595Z,781.88
2018-04-13T15:37:29.653Z,787.50
2018-04-13T15:38:29.717Z,804.38
2018-04-13T15:39:29.781Z,810.00
2018-04-13T15:40:29.887Z,810.00
2018-04-13T15:41:29.908Z,804.38
2018-04-13T15:42:29.972Z,798.75
2018-04-13T15:43:30.040Z,787.50
2018-04-13T15:44:30.103Z,781.88
2018-04-13T15:45:30.190Z,770.63
2018-04-13T15:46:30.263Z,770.63
2018-04-13T15:47:30.294Z,781.88
2018-04-13T15:48:30.362Z,793.13
2018-04-13T15:49:30.420Z,793.13
2018-04-13T15:50:30.487Z,798.75
2018-04-13T15:51:30.616Z,798.75
2018-04-13T15:52:30.613Z,798.75
2018-04-13T15:53:30.676Z,798.75
2018-04-13T15:54:30.747Z,787.50
2018-04-13T15:55:30.805Z,787.50
2018-04-13T15:56:30.911Z,770.63
2018-04-13T15:57:30.931Z,759.38
2018-04-13T15:58:30.998Z,793.13
2018-04-13T15:59:31.060Z,787.50
2018-04-13T16:00:31.123Z,781.88
2018-04-13T16:01:31.213Z,793.13
2018-04-13T16:02:31.283Z,776.25
2018-04-13T16:03:31.317Z,753.75
2018-04-13T16:04:31.382Z,742.50
2018-04-13T16:05:31.444Z,646.88
2018-04-13T16:06:31.507Z,500.63
2018-04-13T16:07:31.609Z,365.63
2018-04-13T16:08:31.635Z,320.63
2018-04-13T16:09:31.699Z,315.00
2018-04-13T16:10:31.762Z,348.75
2018-04-13T16:11:31.821Z,399.38
2018-04-13T16:12:31.918Z,303.75
2018-04-13T16:13:31.946Z,354.38
2018-04-13T16:14:32.007Z,416.25
2018-04-13T16:15:32.072Z,421.88
2018-04-13T16:16:32.127Z,461.25
2018-04-13T16:17:32.209Z,438.75
2018-04-13T16:18:32.270Z,348.75
2018-04-13T16:19:32.302Z,309.38
2018-04-13T16:20:32.367Z,286.88
2018-04-13T16:21:32.417Z,292.50
2018-04-13T16:22:32.478Z,320.63
2018-04-13T16:23:32.562Z,309.38
2018-04-13T16:24:32.591Z,303.75
2018-04-13T16:25:32.648Z,303.75
2018-04-13T16:26:32.714Z,303.75
2018-04-13T16:27:32.760Z,298.13
2018-04-13T16:28:32.845Z,292.50
2018-04-13T16:29:32.872Z,292.50
2018-04-13T16:30:32.923Z,309.38
2018-04-13T16:31:32.976Z,303.75
2018-04-13T16:32:33.035Z,292.50
2018-04-13T16:33:33.129Z,281.25
2018-04-13T16:34:33.139Z,275.63
2018-04-13T16:35:33.197Z,264.38
2018-04-13T16:36:33.252Z,253.13
2018-04-13T16:37:33.303Z,236.25
2018-04-13T16:38:33.380Z,208.13
2018-04-13T16:39:33.410Z,191.25
2018-04-13T16:40:33.488Z,174.38
2018-04-13T16:41:33.517Z,168.75
2018-04-13T16:42:33.570Z,168.75
2018-04-13T16:43:33.621Z,163.13
2018-04-13T16:44:33.674Z,157.50
2018-04-13T16:45:33.755Z,151.88
2018-04-13T16:46:33.780Z,151.88
2018-04-13T16:47:33.834Z,146.25
2018-04-13T16:48:33.884Z,151.88
2018-04-13T16:49:33.975Z,163.13
2018-04-13T16:50:34.037Z,174.38
2018-04-13T16:51:34.040Z,185.63
2018-04-13T16:52:34.100Z,191.25
2018-04-13T16:53:34.143Z,202.50
2018-04-13T16:54:34.222Z,202.50
2018-04-13T16:55:34.254Z,202.50
2018-04-13T16:56:34.329Z,208.13
2018-04-13T16:57:34.352Z,202.50
2018-04-13T16:58:34.406Z,196.88
2018-04-13T16:59:34.457Z,191.25
2018-04-13T17:00:34.511Z,180.00
2018-04-13T17:01:34.582Z,163.13
2018-04-13T17:02:34.610Z,157.50
2018-04-13T17:03:34.666Z,146.25
2018-04-13T17:04:34.718Z,135.00
2018-04-13T17:05:34.767Z,129.38
2018-04-13T17:06:34.852Z,129.38
2018-04-13T17:07:34.872Z,123.75
2018-04-13T17:08:34.922Z,123.75
2018-04-13T17:09:34.971Z,123.75
2018-04-13T17:10:35.024Z,129.38
2018-04-13T17:11:35.101Z,129.38
2018-04-13T17:12:35.151Z,135.00
2018-04-13T17:13:35.180Z,135.00
2018-04-13T17:14:35.232Z,135.00
2018-04-13T17:15:35.282Z,135.00
2018-04-13T17:16:35.372Z,123.75
2018-04-13T17:17:35.384Z,118.13
2018-04-13T17:18:35.436Z,112.50
2018-04-13T17:19:35.491Z,101.25
2018-04-13T17:20:35.540Z,95.63
2018-04-13T17:21:35.615Z,95.63
2018-04-13T17:22:35.662Z,95.63
2018-04-13T17:23:35.692Z,90.00
2018-04-13T17:24:35.743Z,90.00
2018-04-13T17:25:35.793Z,90.00
2018-04-13T17:26:35.847Z,84.38
2018-04-13T17:27:35.922Z,84.38
2018-04-13T17:28:35.975Z,78.75
2018-04-13T17:29:35.995Z,73.13
2018-04-13T17:30:36.046Z,73.13
2018-04-13T17:31:36.098Z,73.13
2018-04-13T17:32:36.174Z,73.13
2018-04-13T17:33:36.232Z,73.13
2018-04-13T17:34:36.271Z,73.13
2018-04-13T17:35:36.303Z,67.50
2018-04-13T17:36:36.351Z,61.88
2018-04-13T17:37:36.404Z,56.25
2018-04-13T17:38:36.484Z,50.63
2018-04-13T17:39:36.504Z,45.00
2018-04-13T17:40:36.552Z,45.00
2018-04-13T17:41:36.603Z,45.00
2018-04-13T17:42:36.651Z,39.38
2018-04-13T17:43:36.727Z,39.38
2018-04-13T17:44:36.755Z,39.38
2018-04-13T17:45:36.834Z,39.38
2018-04-13T17:46:36.852Z,33.75
2018-04-13T17:47:36.902Z,33.75
2018-04-13T17:48:36.953Z,33.75
2018-04-13T17:49:37.035Z,28.13
2018-04-13T17:50:37.053Z,28.13
2018-04-13T17:51:37.104Z,28.13
2018-04-13T17:52:37.153Z,28.13
2018-04-13T17:53:37.207Z,22.50
2018-04-13T17:54:37.280Z,22.50
2018-04-13T17:55:37.304Z,22.50
2018-04-13T17:56:37.380Z,22.50
2018-04-13T17:57:37.404Z,16.88
2018-04-13T17:58:37.457Z,16.88
2018-04-13T17:59:37.504Z,16.88
2018-04-13T18:00:37.580Z,11.25
2018-04-13T18:01:37.607Z,11.25
2018-04-13T18:02:37.653Z,11.25
2018-04-13T18:03:37.703Z,11.25
2018-04-13T18:04:37.752Z,11.25
2018-04-13T18:05:37.826Z,5.63
2018-04-13T18:06:37.859Z,5.63
2018-04-13T18:07:37.899Z,5.63
2018-04-13T18:08:37.951Z,5.63
2018-04-13T18:09:38.001Z,5.63
2018-04-13T18:10:38.070Z,5.63
2018-04-13T18:11:38.100Z,5.63
2018-04-13T18:12:38.177Z,0.00
2018-04-13T18:13:38.194Z,0.00
2018-04-13T18:14:38.248Z,0.00
2018-04-13T18:15:38.330Z,0.00
2018-04-13T18:16:38.347Z,0.00
2018-04-13T18:17:38.393Z,0.00
2018-04-13T18:18:38.442Z,0.00
2018-04-13T18:19:38.493Z,0.00
2018-04-13T18:20:38.572Z,0.00
2018-04-13T18:21:40.267Z,0.00
2018-04-13T18:22:38.643Z,0.00
2018-04-13T18:23:38.689Z,0.00
2018-04-13T18:24:38.742Z,0.00
2018-04-13T18:25:38.820Z,0.00
2018-04-13T18:26:39.791Z,0.00
2018-04-13T18:27:38.889Z,0.00
2018-04-13T18:28:38.941Z,0.00
2018-04-13T18:29:38.986Z,0.00
2018-04-13T18:30:39.075Z,0.00
2018-04-13T18:31:39.083Z,0.00
2018-04-13T18:32:39.136Z,0.00
2018-04-13T18:33:39.181Z,0.00
2018-04-13T18:34:39.248Z,0.00
2018-04-13T18:35:39.305Z,0.00
2018-04-13T18:36:39.332Z,0.00
2018-04-13T18:37:39.377Z,0.00
2018-04-13T18:38:39.474Z,0.00
2018-04-13T18:39:39.478Z,0.00
2018-04-13T18:40:39.526Z,0.00
2018-04-13T18:41:39.576Z,0.00
2018-04-13T18:42:39.627Z,0.00
2018-04-13T18:43:39.704Z,0.00
2018-04-13T18:44:39.721Z,0.00
2018-04-13T18:45:39.772Z,0.00
2018-04-13T18:46:39.819Z,0.00
2018-04-13T18:47:39.870Z,0.00
2018-04-13T18:48:39.942Z,0.00
2018-04-13T18:49:39.971Z,0.00
2018-04-13T18:50:40.014Z,0.00
2018-04-13T18:51:40.095Z,0.00
2018-04-13T18:52:40.112Z,0.00
2018-04-13T18:53:40.161Z,0.00
2018-04-13T18:54:40.212Z,0.00
2018-04-13T18:55:40.260Z,0.00
2018-04-13T18:56:40.334Z,0.00
2018-04-13T18:57:40.359Z,0.00
2018-04-13T18:58:40.407Z,0.00
2018-04-13T18:59:40.456Z,0.00
2018-04-13T19:00:40.505Z,0.00
2018-04-13T19:01:40.595Z,0.00
2018-04-13T19:02:40.602Z,0.00
2018-04-13T19:03:41.568Z,0.00
2018-04-13T19:04:40.701Z,0.00
2018-04-13T19:05:40.752Z,0.00
2018-04-13T19:06:40.826Z,0.00
2018-04-13T19:07:40.856Z,0.00
2018-04-13T19:08:40.909Z,0.00
2018-04-13T19:09:40.946Z,0.00
2018-04-13T19:10:40.996Z,0.00
2018-04-13T19:11:41.069Z,0.00
2018-04-13T19:12:41.136Z,0.00
2018-04-13T19:13:41.140Z,0.00
2018-04-13T19:14:41.200Z,0.00
2018-04-13T19:15:41.245Z,0.00
2018-04-13T19:16:41.318Z,0.00
2018-04-13T19:17:41.338Z,0.00
2018-04-13T19:18:41.388Z,0.00
2018-04-13T19:19:41.439Z,0.00
2018-04-13T19:20:41.484Z,0.00
2018-04-13T19:21:41.565Z,0.00
2018-04-13T19:22:41.605Z,0.00
2018-04-13T19:23:41.641Z,0.00
2018-04-13T19:24:41.680Z,0.00
2018-04-13T19:25:41.729Z,0.00
2018-04-13T19:26:41.808Z,0.00
2018-04-13T19:27:41.856Z,0.00
2018-04-13T19:28:41.877Z,0.00
2018-04-13T19:29:41.924Z,0.00
2018-04-13T19:30:41.975Z,0.00
2018-04-13T19:31:42.034Z,0.00
2018-04-13T19:32:42.110Z,0.00
2018-04-13T19:33:42.119Z,0.00
2018-04-13T19:34:42.172Z,0.00
2018-04-13T19:35:42.222Z,0.00
2018-04-13T19:36:42.270Z,0.00
2018-04-13T19:37:42.341Z,0.00
2018-04-13T19:38:42.423Z,0.00
2018-04-13T19:39:42.416Z,0.00
2018-04-13T19:40:42.466Z,0.00
2018-04-13T19:41:42.511Z,0.00